DURO2: Washita River Durwood, OK

                                SHEF ID:       DURO2     Washita River near Dickson, OK
STATION TYPE:
Regulating: Stage = 27.00, Flow = 32534

PRECIP PRECIP(A) STAGE RIV-FLOW BAT-LOAD
in in ft cfs volt
Ccp-Rev Ccp-Rev Ccp-Rev Ccp-Rev Ccp-Rev
(America/Chicago)
03/01 00:00 0.00 ---- 7.59 412 12.73
03/01 01:00 0.00 ---- 7.58 409 12.65
03/01 02:00 0.00 ---- 7.58 409 12.65
03/01 03:00 0.00 ---- 7.57 406 12.65
03/01 04:00 0.00 ---- 7.59 412 12.65
03/01 05:00 0.00 ---- 7.60 415 12.57
03/01 06:00 0.00 ---- 7.52 391 12.57
03/01 07:00 0.00 ---- 7.46 374 12.57
03/01 08:00 0.00 ---- 7.53 394 12.57
03/01 09:00 0.00 ---- 7.56 403 12.65
03/01 10:00 0.00 ---- 7.48 380 13.29
03/01 11:00 0.00 ---- 7.50 385 13.68
03/01 12:00 0.00 ---- 7.52 391 13.68
03/01 13:00 0.00 ---- 7.62 421 13.60
03/01 14:00 0.00 ---- 7.61 418 13.29
03/01 15:00 0.00 ---- 7.63 424 13.29
03/01 16:00 0.00 ---- 7.66 434 13.37
03/01 17:00 0.00 ---- 7.69 443 13.29
03/01 18:00 0.00 ---- 7.70 446 13.13
03/01 19:00 0.00 ---- 7.76 465 12.89
03/01 20:00 0.00 ---- 7.76 465 12.81
03/01 21:00 0.00 ---- 7.76 465 12.81
03/01 22:00 0.00 ---- 7.75 462 12.73
03/01 23:00 0.00 ---- 7.74 459 12.73
Data processed at Mon 02Mar2026 05:36 GMT

NOTICE: If you are parsing this page

Please convert to using our Data API. Starting early 2026 we will be migrating to: https://water.usace.army.mil with modern pages rendered in JavaScript. When this migration completes you will no longer be able to scrape this page! CWMSDataAPI (CDA)

Timeseries IDs (TSIDs)

TSIDs used from left to right in the data table
DICK.Precip-Inc.Total.1Hour.1Hour.Ccp-Rev
DICK.Precip-Inc Alt.Total.1Hour.1Hour.Ccp-Rev
DICK.Stage.Inst.1Hour.0.Ccp-Rev
DICK.Flow.Inst.1Hour.0.Ccp-Rev
DICK.Volt-Battery Load.Inst.1Hour.0.Ccp-Rev

                            

All information presented herein is the property of the government of the United States of America and may be revised or deleted at any time without prior notice. Dissemination of this information without the expressed written consent of the Public Affairs Office, Tulsa District U.S. Army Corps of Engineers is strictly prohibited. These data are gathered electronically and, as presented, have NOT undergone any form of quality control. These data are NOT guaranteed to be valid or correct.